Time;durP1;ratioP1;P1;durP2;ratioP2;P2;SDS_P1;SDS_P2;PMS_P1;PMS_P2;Temp;Humidity;BMP_temperature;BMP_pressure;BME280_temperature;BME280_humidity;BME280_pressure;Samples;Min_cycle;Max_cycle;Signal;HPM_P1;HPM_P2
2023/10/22 00:02:06;;;;;;;1.65;0.15;;;15.20;99.70;;;;;;5032738;28;20025;-78
2023/10/22 00:04:31;;;;;;;2.30;0.10;;;15.10;99.80;;;;;;5033255;28;20025;-79
2023/10/22 00:06:58;;;;;;;1.83;0.10;;;15.10;99.90;;;;;;5035190;28;20041;-79
2023/10/22 00:09:24;;;;;;;0.60;0.15;;;15.10;99.90;;;;;;5036596;28;20477;-79
2023/10/22 00:11:49;;;;;;;0.98;0.17;;;15.10;99.90;;;;;;5057413;28;20040;-79
2023/10/22 00:14:15;;;;;;;2.95;0.15;;;15.10;99.90;;;;;;5055992;28;20366;-79
2023/10/22 00:16:41;;;;;;;2.65;0.30;;;15.00;99.90;;;;;;5056167;28;20040;-79
2023/10/22 00:19:06;;;;;;;1.58;0.17;;;15.00;99.90;;;;;;5056353;28;20194;-79
2023/10/22 00:21:32;;;;;;;2.85;0.20;;;15.00;99.90;;;;;;5034634;28;20038;-80
2023/10/22 00:23:58;;;;;;;3.97;0.10;;;15.00;99.90;;;;;;5036064;28;20034;-79
2023/10/22 00:26:24;;;;;;;4.00;0.52;;;15.00;99.90;;;;;;5039608;28;20027;-80
2023/10/22 00:28:50;;;;;;;1.58;0.20;;;14.90;99.90;;;;;;5057277;28;20037;-80
2023/10/22 00:31:15;;;;;;;3.20;0.10;;;14.90;99.90;;;;;;5073260;28;20028;-79
2023/10/22 00:33:41;;;;;;;2.92;0.10;;;14.90;99.90;;;;;;5071215;28;20041;-79
2023/10/22 00:36:07;;;;;;;1.90;0.20;;;14.80;99.90;;;;;;5075750;28;20051;-79
2023/10/22 00:38:33;;;;;;;3.13;0.10;;;14.90;99.90;;;;;;5067376;28;20110;-79
2023/10/22 00:40:58;;;;;;;2.53;0.10;;;14.90;99.90;;;;;;5054596;28;20036;-79
2023/10/22 00:43:24;;;;;;;2.55;0.20;;;14.90;99.90;;;;;;5054747;28;20025;-78
2023/10/22 00:45:49;;;;;;;2.85;0.10;;;14.90;99.90;;;;;;5038068;28;20136;-79
2023/10/22 00:48:18;;;;;;;2.13;0.20;;;14.80;99.90;;;;;;5054668;28;20043;-79
2023/10/22 00:50:43;;;;;;;2.53;0.45;;;14.80;99.90;;;;;;5053815;28;20116;-80
2023/10/22 00:53:13;;;;;;;0.85;0.20;;;14.90;99.90;;;;;;5055729;28;20044;-79
2023/10/22 00:55:40;;;;;;;3.65;0.30;;;14.90;99.90;;;;;;5055613;28;20036;-79
2023/10/22 00:58:07;;;;;;;4.13;0.20;;;14.90;99.90;;;;;;5055219;28;20041;-78
2023/10/22 01:00:34;;;;;;;1.70;0.17;;;14.90;99.90;;;;;;5037557;28;20029;-79
2023/10/22 01:03:01;;;;;;;2.38;0.20;;;14.90;99.90;;;;;;5050312;28;20057;-80
2023/10/22 01:05:28;;;;;;;3.58;0.30;;;14.90;99.90;;;;;;5034542;28;20033;-80
2023/10/22 01:07:54;;;;;;;4.95;0.55;;;14.90;99.90;;;;;;5035417;28;20122;-80
2023/10/22 01:10:19;;;;;;;5.43;0.25;;;14.90;99.90;;;;;;5035680;28;20033;-82
2023/10/22 01:12:45;;;;;;;3.67;0.10;;;14.90;99.90;;;;;;5035630;28;20485;-80
2023/10/22 01:15:11;;;;;;;2.55;0.40;;;14.80;99.90;;;;;;5037192;28;20412;-79
2023/10/22 01:17:36;;;;;;;0.80;0.10;;;14.80;99.90;;;;;;5053910;28;20500;-80
2023/10/22 01:20:03;;;;;;;4.22;0.20;;;14.80;99.90;;;;;;5053976;28;20025;-79
2023/10/22 01:22:28;;;;;;;2.58;0.30;;;14.80;99.90;;;;;;5054121;28;20033;-80
2023/10/22 01:24:54;;;;;;;1.42;0.15;;;14.80;99.90;;;;;;5055143;28;20029;-80
2023/10/22 01:27:20;;;;;;;5.28;0.40;;;14.70;99.90;;;;;;5053685;28;20420;-79
2023/10/22 01:29:46;;;;;;;2.05;0.30;;;14.60;99.90;;;;;;5054706;28;20039;-79
2023/10/22 01:32:12;;;;;;;2.75;0.20;;;14.60;99.90;;;;;;5055151;28;20386;-79
2023/10/22 01:34:38;;;;;;;2.00;0.28;;;14.70;99.90;;;;;;5059452;28;20069;-79
2023/10/22 01:37:04;;;;;;;2.92;0.30;;;14.70;99.90;;;;;;5074937;28;20475;-80
2023/10/22 01:39:29;;;;;;;2.53;0.30;;;14.70;99.90;;;;;;5067042;28;20572;-80
2023/10/22 01:41:55;;;;;;;1.33;0.15;;;14.70;99.90;;;;;;5036934;28;20473;-79
2023/10/22 01:44:21;;;;;;;2.25;0.20;;;14.70;99.90;;;;;;5054636;28;20024;-78
2023/10/22 01:46:46;;;;;;;2.80;0.30;;;14.70;99.90;;;;;;5053535;28;20114;-78
2023/10/22 01:49:12;;;;;;;2.13;0.20;;;14.70;99.90;;;;;;5054376;28;20425;-79
2023/10/22 01:51:38;;;;;;;1.52;0.30;;;14.60;99.90;;;;;;5052906;28;20032;-78
2023/10/22 01:54:05;;;;;;;2.35;0.20;;;14.60;99.90;;;;;;5054533;28;20033;-78
2023/10/22 01:56:30;;;;;;;1.42;0.20;;;14.70;99.90;;;;;;5041258;28;20033;-78
2023/10/22 01:58:56;;;;;;;2.58;0.20;;;14.60;99.90;;;;;;5052569;28;20577;-78
2023/10/22 02:01:22;;;;;;;2.50;0.20;;;14.60;99.90;;;;;;5054359;28;20056;-78
2023/10/22 02:03:48;;;;;;;3.38;0.30;;;14.70;99.90;;;;;;5054365;28;20029;-78
2023/10/22 02:06:14;;;;;;;2.30;0.20;;;14.60;99.90;;;;;;5054238;28;20359;-78
2023/10/22 02:08:41;;;;;;;1.58;0.20;;;14.70;99.90;;;;;;5054195;28;20123;-73
2023/10/22 02:11:07;;;;;;;1.92;0.15;;;14.70;99.90;;;;;;5054599;28;20037;-73
2023/10/22 02:13:33;;;;;;;2.90;0.20;;;14.60;99.90;;;;;;5054532;28;20052;-74
2023/10/22 02:15:59;;;;;;;3.13;0.20;;;14.60;99.90;;;;;;5053250;28;20025;-74
2023/10/22 02:18:24;;;;;;;3.70;0.20;;;14.50;99.90;;;;;;5054021;28;20434;-74
2023/10/22 02:21:00;;;;;;;3.00;0.35;;;14.50;99.90;;;;;;5054331;28;20423;-74
2023/10/22 02:23:27;;;;;;;3.83;0.50;;;14.50;99.90;;;;;;5054312;28;20033;-74
2023/10/22 02:25:53;;;;;;;2.58;0.30;;;14.40;99.90;;;;;;5054041;28;20056;-75
2023/10/22 02:28:19;;;;;;;4.40;0.32;;;14.30;99.90;;;;;;5053940;28;20041;-75
2023/10/22 02:30:47;;;;;;;3.80;0.30;;;14.30;99.90;;;;;;5054493;28;20037;-74
2023/10/22 02:33:13;;;;;;;3.60;0.30;;;14.20;99.90;;;;;;5054091;28;20025;-74
2023/10/22 02:35:43;;;;;;;2.83;0.30;;;14.20;99.90;;;;;;5053838;28;20048;-74
2023/10/22 02:38:13;;;;;;;1.90;0.30;;;14.10;99.90;;;;;;5053254;28;20358;-75
2023/10/22 02:40:38;;;;;;;3.22;0.45;;;14.10;99.90;;;;;;5053749;28;20056;-74
2023/10/22 02:43:05;;;;;;;1.90;0.30;;;14.00;99.90;;;;;;5053646;28;20060;-74
2023/10/22 02:45:30;;;;;;;2.85;0.47;;;14.00;99.90;;;;;;5053778;28;20055;-74
2023/10/22 02:47:59;;;;;;;3.50;0.32;;;13.90;99.90;;;;;;5054064;28;20449;-74
2023/10/22 02:50:26;;;;;;;2.33;0.40;;;13.90;99.90;;;;;;5054079;28;20036;-74
2023/10/22 02:52:52;;;;;;;2.67;0.30;;;13.90;99.90;;;;;;5053888;28;20468;-74
2023/10/22 02:55:18;;;;;;;2.70;0.65;;;13.90;99.90;;;;;;5052696;28;20075;-74
2023/10/22 02:57:44;;;;;;;2.28;0.38;;;13.90;99.90;;;;;;5053995;28;20449;-74
2023/10/22 03:00:11;;;;;;;2.53;0.52;;;13.80;99.90;;;;;;5053980;28;20033;-74
2023/10/22 03:02:46;;;;;;;3.03;0.43;;;13.80;99.90;;;;;;5053721;28;20504;-75
2023/10/22 03:05:11;;;;;;;3.60;0.30;;;13.80;99.90;;;;;;5054055;28;20029;-74
2023/10/22 03:07:37;;;;;;;2.30;0.77;;;13.70;99.90;;;;;;5053738;28;20083;-75
2023/10/22 03:10:03;;;;;;;3.08;0.50;;;13.70;99.90;;;;;;5053886;28;20037;-74
2023/10/22 03:12:29;;;;;;;5.78;0.50;;;13.70;99.90;;;;;;5053541;28;20033;-74
2023/10/22 03:14:54;;;;;;;1.80;0.40;;;13.70;99.90;;;;;;5053576;28;20098;-75
2023/10/22 03:17:20;;;;;;;4.90;0.63;;;13.70;99.90;;;;;;5052233;28;20036;-74
2023/10/22 03:19:46;;;;;;;2.90;0.60;;;13.70;99.90;;;;;;5053528;28;20033;-74
2023/10/22 03:22:13;;;;;;;3.83;0.75;;;13.70;99.90;;;;;;5053166;28;20090;-74
2023/10/22 03:24:38;;;;;;;4.10;0.60;;;13.70;99.90;;;;;;5053136;28;20432;-73
2023/10/22 03:27:04;;;;;;;4.70;0.57;;;13.70;99.90;;;;;;5053468;28;20029;-73
2023/10/22 03:29:31;;;;;;;6.07;0.85;;;13.70;99.90;;;;;;5053433;28;20040;-74
2023/10/22 03:31:57;;;;;;;3.10;0.70;;;13.80;99.90;;;;;;5053920;28;20045;-73
2023/10/22 03:34:24;;;;;;;5.72;0.70;;;13.70;99.90;;;;;;5053407;28;20025;-74
2023/10/22 03:36:49;;;;;;;4.20;0.50;;;13.70;99.90;;;;;;5053363;28;20048;-74
2023/10/22 03:39:15;;;;;;;2.95;0.70;;;13.60;99.90;;;;;;5051985;28;20037;-74
2023/10/22 03:41:41;;;;;;;5.50;0.57;;;13.70;99.90;;;;;;5056262;28;20029;-74
2023/10/22 03:44:06;;;;;;;6.28;1.00;;;13.60;99.90;;;;;;5057937;28;20025;-74
2023/10/22 03:46:32;;;;;;;3.22;0.70;;;13.60;99.90;;;;;;5057593;28;20025;-74
2023/10/22 03:48:58;;;;;;;4.22;0.82;;;13.60;99.90;;;;;;5055732;28;20546;-74
2023/10/22 03:51:24;;;;;;;3.78;0.90;;;13.60;99.90;;;;;;5057103;28;20052;-74
2023/10/22 03:53:53;;;;;;;2.58;0.70;;;13.60;99.90;;;;;;5057341;28;20033;-74
2023/10/22 03:56:20;;;;;;;3.25;0.80;;;13.60;99.90;;;;;;5057419;28;20071;-76
2023/10/22 03:58:45;;;;;;;4.57;0.95;;;13.60;99.90;;;;;;5057045;28;20037;-75
2023/10/22 04:01:11;;;;;;;5.05;0.85;;;13.60;99.90;;;;;;5056796;28;20535;-77
2023/10/22 04:03:37;;;;;;;3.00;0.70;;;13.60;99.90;;;;;;5057785;28;20029;-76
2023/10/22 04:06:03;;;;;;;4.18;1.13;;;13.50;99.90;;;;;;5056960;28;20029;-76
2023/10/22 04:08:29;;;;;;;3.53;0.75;;;13.50;99.90;;;;;;5057102;28;20385;-75
2023/10/22 04:10:55;;;;;;;2.45;0.88;;;13.50;99.90;;;;;;5057363;28;20021;-76
2023/10/22 04:13:21;;;;;;;5.43;0.95;;;13.50;99.90;;;;;;5055575;28;20029;-75
2023/10/22 04:15:48;;;;;;;3.15;1.17;;;13.50;99.90;;;;;;5057294;28;20029;-74
2023/10/22 04:18:14;;;;;;;3.28;1.30;;;13.40;99.90;;;;;;5056585;28;20080;-75
2023/10/22 04:20:40;;;;;;;3.95;0.90;;;13.40;99.90;;;;;;5056332;28;20037;-75
2023/10/22 04:23:08;;;;;;;1.30;0.75;;;13.30;99.90;;;;;;5056626;28;20037;-75
2023/10/22 04:25:44;;;;;;;2.78;0.80;;;13.40;99.90;;;;;;5056600;28;20053;-75
2023/10/22 04:28:10;;;;;;;2.47;1.10;;;13.30;99.90;;;;;;5057430;28;20061;-75
2023/10/22 04:30:37;;;;;;;3.20;0.95;;;13.30;99.90;;;;;;5056540;28;20025;-75
2023/10/22 04:33:04;;;;;;;1.95;1.10;;;13.30;99.90;;;;;;5056471;28;20075;-75
2023/10/22 04:35:31;;;;;;;6.25;1.60;;;13.30;99.90;;;;;;5055158;28;20110;-74
2023/10/22 04:37:56;;;;;;;1.90;1.17;;;13.30;99.90;;;;;;5056839;28;20074;-75
2023/10/22 04:40:23;;;;;;;3.10;1.60;;;13.20;99.90;;;;;;5056244;28;20029;-75
2023/10/22 04:42:49;;;;;;;2.20;1.10;;;13.30;99.90;;;;;;5057066;28;20041;-75
2023/10/22 04:45:14;;;;;;;2.75;1.45;;;13.30;99.90;;;;;;5056511;28;20433;-76
2023/10/22 04:47:40;;;;;;;2.47;1.45;;;13.30;99.90;;;;;;5056964;28;20033;-75
2023/10/22 04:50:06;;;;;;;2.95;1.60;;;13.30;99.90;;;;;;5056030;28;20061;-73
2023/10/22 04:52:33;;;;;;;4.35;1.67;;;13.30;99.90;;;;;;5054745;28;20056;-76
2023/10/22 04:54:59;;;;;;;2.63;1.30;;;13.20;99.90;;;;;;5056795;28;20048;-75
2023/10/22 04:57:28;;;;;;;3.38;1.75;;;13.20;99.90;;;;;;5054669;28;20033;-75
2023/10/22 04:59:54;;;;;;;5.18;1.73;;;13.30;99.90;;;;;;5055594;28;20033;-75
2023/10/22 05:02:20;;;;;;;5.70;1.92;;;13.30;99.90;;;;;;5055888;28;20376;-75
2023/10/22 05:04:49;;;;;;;3.97;2.00;;;13.30;99.90;;;;;;5056342;28;20028;-75
2023/10/22 05:07:15;;;;;;;2.30;1.70;;;13.30;99.90;;;;;;5055999;28;20059;-75
2023/10/22 05:09:41;;;;;;;4.63;2.17;;;13.30;99.90;;;;;;5055973;28;20384;-75
2023/10/22 05:12:07;;;;;;;4.60;2.72;;;13.30;99.90;;;;;;5055447;28;20039;-75
2023/10/22 05:14:32;;;;;;;5.18;2.88;;;13.40;99.90;;;;;;5055663;28;20108;-75
2023/10/22 05:16:58;;;;;;;4.78;2.90;;;13.40;99.90;;;;;;5055912;28;20376;-75
2023/10/22 05:19:24;;;;;;;4.85;2.30;;;13.40;99.90;;;;;;5054028;28;20052;-74
2023/10/22 05:21:50;;;;;;;4.18;2.58;;;13.40;99.90;;;;;;5055495;28;20033;-75
2023/10/22 05:24:16;;;;;;;6.05;3.47;;;13.40;99.90;;;;;;5055534;28;20385;-74
2023/10/22 05:26:42;;;;;;;5.45;3.55;;;13.40;99.90;;;;;;5055180;28;20040;-75
2023/10/22 05:29:07;;;;;;;7.15;4.47;;;13.40;99.90;;;;;;5055411;28;20128;-75
2023/10/22 05:31:33;;;;;;;7.03;4.82;;;13.40;99.90;;;;;;5054175;28;20029;-75
2023/10/22 05:33:59;;;;;;;10.73;5.78;;;13.50;99.90;;;;;;5055272;28;20025;-76
2023/10/22 05:36:25;;;;;;;5.88;4.68;;;13.40;99.90;;;;;;5055272;28;20025;-75
2023/10/22 05:38:51;;;;;;;5.60;3.72;;;13.40;99.90;;;;;;5055171;28;20136;-75
2023/10/22 05:41:27;;;;;;;6.78;3.72;;;13.40;99.90;;;;;;5053748;28;20473;-75
2023/10/22 05:44:02;;;;;;;5.00;3.53;;;13.30;99.90;;;;;;5055484;28;20028;-75
2023/10/22 05:46:32;;;;;;;6.45;3.85;;;13.30;99.90;;;;;;5055141;28;20025;-76
2023/10/22 05:48:58;;;;;;;7.68;3.95;;;13.20;99.90;;;;;;5055057;28;20074;-75
2023/10/22 05:51:24;;;;;;;6.18;3.63;;;13.10;99.90;;;;;;5054848;28;20044;-75
2023/10/22 05:53:50;;;;;;;4.85;2.95;;;13.00;99.90;;;;;;5054974;28;20025;-76
2023/10/22 05:56:16;;;;;;;6.18;3.88;;;13.00;99.90;;;;;;5054900;28;20055;-75
2023/10/22 05:58:43;;;;;;;6.28;3.13;;;12.90;99.90;;;;;;5053459;28;20420;-75
2023/10/22 06:01:09;;;;;;;6.10;3.70;;;13.00;99.90;;;;;;5055055;28;20121;-75
2023/10/22 06:03:35;;;;;;;6.53;4.18;;;13.00;99.90;;;;;;5054352;28;20037;-75
2023/10/22 06:06:01;;;;;;;7.47;4.40;;;13.00;99.90;;;;;;5054645;28;20051;-75
2023/10/22 06:08:27;;;;;;;6.65;4.22;;;12.90;99.90;;;;;;5054039;28;20483;-75
2023/10/22 06:10:53;;;;;;;9.27;5.40;;;13.00;99.90;;;;;;5054569;28;20435;-75
2023/10/22 06:13:18;;;;;;;7.30;5.07;;;13.00;99.90;;;;;;5054822;28;20111;-74
2023/10/22 06:15:45;;;;;;;7.43;5.43;;;12.90;99.90;;;;;;5053308;28;20036;-75
2023/10/22 06:18:11;;;;;;;9.00;5.75;;;13.00;99.90;;;;;;5052706;28;20049;-75
2023/10/22 06:20:38;;;;;;;10.10;6.00;;;13.00;99.90;;;;;;5054289;28;20064;-75
2023/10/22 06:23:04;;;;;;;7.40;5.55;;;13.00;99.90;;;;;;5054657;28;20040;-77
2023/10/22 06:25:34;;;;;;;9.23;6.07;;;13.00;99.90;;;;;;5054058;28;20052;-77
2023/10/22 06:28:00;;;;;;;8.77;6.07;;;13.00;99.90;;;;;;5054245;28;20465;-77
2023/10/22 06:30:27;;;;;;;9.82;5.72;;;13.00;99.90;;;;;;5053939;28;20453;-77
2023/10/22 06:32:58;;;;;;;7.95;5.50;;;13.00;99.90;;;;;;5054201;28;20365;-77
2023/10/22 06:35:27;;;;;;;6.90;5.18;;;13.00;99.90;;;;;;5054124;28;20025;-77
2023/10/22 06:37:53;;;;;;;9.43;5.85;;;13.10;99.90;;;;;;5054581;28;20060;-76
2023/10/22 06:40:19;;;;;;;7.65;5.57;;;13.10;99.90;;;;;;5054394;28;20025;-76
2023/10/22 06:42:45;;;;;;;8.40;5.95;;;13.20;99.90;;;;;;5054041;28;20021;-76
2023/10/22 06:45:11;;;;;;;8.50;6.13;;;13.20;99.90;;;;;;5054502;28;20476;-76
2023/10/22 06:47:37;;;;;;;7.82;6.00;;;13.20;99.90;;;;;;5054220;28;20036;-75
2023/10/22 06:50:04;;;;;;;9.35;5.55;;;13.30;99.90;;;;;;5053579;28;20033;-76
2023/10/22 06:52:30;;;;;;;9.20;6.45;;;13.40;99.90;;;;;;5054081;28;20150;-78
2023/10/22 06:54:56;;;;;;;8.48;5.15;;;13.50;99.90;;;;;;5052658;28;20524;-77
2023/10/22 06:57:21;;;;;;;8.90;5.38;;;13.50;99.90;;;;;;5052816;28;20349;-76
2023/10/22 06:59:48;;;;;;;9.55;5.65;;;13.60;99.90;;;;;;5053278;28;20370;-76
2023/10/22 07:02:15;;;;;;;9.18;5.50;;;13.70;99.90;;;;;;5053625;28;20040;-76
2023/10/22 07:04:42;;;;;;;10.30;5.88;;;13.70;99.90;;;;;;5053667;28;20067;-77
2023/10/22 07:07:08;;;;;;;8.15;5.70;;;13.70;99.90;;;;;;5053779;28;20524;-75
2023/10/22 07:09:33;;;;;;;7.78;5.03;;;13.80;99.90;;;;;;5053495;28;20517;-75
2023/10/22 07:11:59;;;;;;;8.15;5.13;;;13.80;99.90;;;;;;5053145;28;20036;-75
2023/10/22 07:14:26;;;;;;;9.73;4.38;;;13.80;99.90;;;;;;5052963;28;20441;-74
2023/10/22 07:16:51;;;;;;;10.65;5.43;;;13.90;99.90;;;;;;5052237;28;20037;-74
2023/10/22 07:19:17;;;;;;;9.38;5.22;;;13.90;99.90;;;;;;5053067;28;20079;-74
2023/10/22 07:21:42;;;;;;;8.70;3.85;;;13.80;99.90;;;;;;5053155;28;20029;-74
2023/10/22 07:24:08;;;;;;;7.25;3.72;;;13.70;99.90;;;;;;5053479;28;20419;-75
2023/10/22 07:26:34;;;;;;;7.00;3.67;;;13.70;99.90;;;;;;5053123;28;20033;-76
2023/10/22 07:28:59;;;;;;;5.13;3.88;;;13.70;99.90;;;;;;5053390;28;20078;-76
2023/10/22 07:31:25;;;;;;;6.35;3.75;;;13.80;99.90;;;;;;5053275;28;20025;-75
2023/10/22 07:33:51;;;;;;;8.60;3.25;;;13.80;99.90;;;;;;5053539;28;20495;-75
2023/10/22 07:36:16;;;;;;;9.30;3.75;;;13.80;99.90;;;;;;5053697;28;20044;-74
2023/10/22 07:38:42;;;;;;;6.78;2.97;;;13.90;99.90;;;;;;5052416;28;20583;-74
2023/10/22 07:41:15;;;;;;;4.88;2.95;;;13.90;99.90;;;;;;5051980;28;20100;-74
2023/10/22 07:43:40;;;;;;;6.53;2.65;;;13.90;99.90;;;;;;5053147;28;20029;-74
2023/10/22 07:46:07;;;;;;;5.93;2.50;;;13.90;99.90;;;;;;5051980;28;20029;-73
2023/10/22 07:48:33;;;;;;;6.72;2.67;;;13.90;99.90;;;;;;5053146;28;20037;-74
2023/10/22 07:51:09;;;;;;;3.95;2.00;;;13.90;99.90;;;;;;5053116;28;20040;-73
2023/10/22 07:53:35;;;;;;;5.20;2.45;;;13.90;99.90;;;;;;5053174;28;20051;-73
2023/10/22 07:56:00;;;;;;;5.45;2.17;;;13.80;99.90;;;;;;5053504;28;20029;-73
2023/10/22 07:58:26;;;;;;;7.78;2.30;;;13.80;99.90;;;;;;5051872;28;20040;-74
2023/10/22 08:00:52;;;;;;;5.53;2.03;;;13.90;99.90;;;;;;5052761;28;20431;-74
2023/10/22 08:03:17;;;;;;;5.65;2.22;;;13.80;99.90;;;;;;5052416;28;20031;-73
2023/10/22 08:05:43;;;;;;;3.90;2.00;;;13.80;99.90;;;;;;5052467;28;20112;-74
2023/10/22 08:08:08;;;;;;;3.58;1.80;;;13.70;99.90;;;;;;5051867;28;20033;-73
2023/10/22 08:10:35;;;;;;;7.15;2.47;;;13.70;99.90;;;;;;5053054;28;20037;-74
2023/10/22 08:13:00;;;;;;;6.10;1.85;;;13.60;99.90;;;;;;5053596;28;20036;-74
2023/10/22 08:15:26;;;;;;;4.60;1.80;;;13.60;99.90;;;;;;5053071;28;20028;-73
2023/10/22 08:17:51;;;;;;;4.10;1.55;;;13.60;99.90;;;;;;5053108;28;20053;-73
2023/10/22 08:20:17;;;;;;;5.07;2.05;;;13.60;99.90;;;;;;5053205;28;20044;-73
2023/10/22 08:22:43;;;;;;;6.63;1.63;;;13.60;99.90;;;;;;5053143;28;20057;-73
2023/10/22 08:25:08;;;;;;;5.43;2.00;;;13.50;99.90;;;;;;5052975;28;20028;-74
2023/10/22 08:27:34;;;;;;;5.28;1.63;;;13.50;99.90;;;;;;5056148;28;20106;-73
2023/10/22 08:30:00;;;;;;;5.00;1.90;;;13.60;99.90;;;;;;5056472;28;20388;-73
2023/10/22 08:32:25;;;;;;;5.63;1.48;;;13.60;99.90;;;;;;5056734;28;20463;-73
2023/10/22 08:34:51;;;;;;;4.68;1.60;;;13.60;99.90;;;;;;5056594;28;20029;-74
2023/10/22 08:37:17;;;;;;;7.07;1.50;;;13.60;99.90;;;;;;5056011;28;20048;-73
2023/10/22 08:39:42;;;;;;;4.05;1.55;;;13.60;99.90;;;;;;5054962;28;20029;-73
2023/10/22 08:42:11;;;;;;;7.45;1.75;;;13.70;99.90;;;;;;5056477;28;20227;-73
2023/10/22 08:44:48;;;;;;;3.42;1.13;;;13.60;99.90;;;;;;5055994;28;20029;-73
2023/10/22 08:47:13;;;;;;;3.70;1.27;;;13.70;99.90;;;;;;5056531;28;20051;-73
2023/10/22 08:49:40;;;;;;;4.47;1.15;;;13.70;99.90;;;;;;5056912;28;20441;-73
2023/10/22 08:52:09;;;;;;;3.47;1.70;;;13.80;99.90;;;;;;5056264;28;20028;-74
2023/10/22 08:54:37;;;;;;;4.28;1.10;;;13.80;99.90;;;;;;5056708;28;20075;-73
2023/10/22 08:57:03;;;;;;;3.92;1.00;;;13.80;99.90;;;;;;5055877;28;20033;-73
2023/10/22 08:59:37;;;;;;;5.60;1.30;;;13.80;99.90;;;;;;5055597;28;20120;-73
2023/10/22 09:02:08;;;;;;;4.38;0.82;;;13.90;99.90;;;;;;5055877;28;20037;-73
2023/10/22 09:04:34;;;;;;;5.80;0.98;;;13.90;99.90;;;;;;5054632;28;20025;-75
2023/10/22 09:07:00;;;;;;;6.13;1.00;;;13.90;99.90;;;;;;5055596;28;20088;-73
2023/10/22 09:09:39;;;;;;;3.08;0.98;;;14.00;99.90;;;;;;5055825;28;20078;-73
2023/10/22 09:12:10;;;;;;;3.70;0.70;;;14.00;99.90;;;;;;5055340;28;20066;-74
2023/10/22 09:14:36;;;;;;;2.83;0.80;;;14.00;99.90;;;;;;5055549;28;20071;-75
2023/10/22 09:17:16;;;;;;;4.93;1.02;;;14.00;99.90;;;;;;5055480;28;20028;-74
2023/10/22 09:19:47;;;;;;;4.32;0.90;;;14.00;99.90;;;;;;5056106;28;20052;-74
2023/10/22 09:22:22;;;;;;;4.75;0.70;;;14.00;99.90;;;;;;5056396;28;20365;-74
2023/10/22 09:24:50;;;;;;;2.92;0.85;;;14.00;99.90;;;;;;5054630;28;20419;-77
2023/10/22 09:27:25;;;;;;;4.57;0.68;;;14.10;99.90;;;;;;5054994;28;20021;-73
2023/10/22 09:29:52;;;;;;;2.90;0.80;;;14.10;99.90;;;;;;5055795;28;20458;-74
2023/10/22 09:32:19;;;;;;;1.95;0.80;;;14.20;99.90;;;;;;5055226;28;20087;-76
2023/10/22 09:34:45;;;;;;;3.72;0.80;;;14.20;99.90;;;;;;5055564;28;20025;-76
2023/10/22 09:37:11;;;;;;;5.78;1.20;;;14.20;99.90;;;;;;5053988;28;20033;-75
2023/10/22 09:39:44;;;;;;;6.10;1.35;;;14.30;99.90;;;;;;5055420;28;20079;-75
2023/10/22 09:42:16;;;;;;;3.78;0.80;;;14.30;99.90;;;;;;5054019;28;20350;-76
2023/10/22 09:44:44;;;;;;;6.57;1.00;;;14.30;99.90;;;;;;5055046;28;20025;-76
2023/10/22 09:47:13;;;;;;;3.42;0.75;;;14.40;99.90;;;;;;5055443;28;20037;-75
2023/10/22 09:49:44;;;;;;;4.80;1.27;;;14.40;99.90;;;;;;5053686;28;20427;-75
2023/10/22 09:52:12;;;;;;;3.85;0.77;;;14.40;99.90;;;;;;5054985;28;20033;-76
2023/10/22 09:54:39;;;;;;;4.90;0.90;;;14.40;99.90;;;;;;5053876;28;20035;-76
2023/10/22 09:57:12;;;;;;;5.60;1.20;;;14.40;99.90;;;;;;5054802;28;20056;-74
2023/10/22 09:59:39;;;;;;;4.63;1.00;;;14.50;99.90;;;;;;5054603;28;20155;-74
2023/10/22 10:02:09;;;;;;;3.28;0.70;;;14.50;99.90;;;;;;5054934;28;20041;-74
2023/10/22 10:04:35;;;;;;;4.03;0.98;;;14.50;99.90;;;;;;5055196;28;20186;-74
2023/10/22 10:07:03;;;;;;;6.40;1.20;;;14.60;99.90;;;;;;5054598;28;20025;-74
2023/10/22 10:09:30;;;;;;;4.85;1.05;;;14.70;99.90;;;;;;5055194;28;20045;-74
2023/10/22 10:11:57;;;;;;;3.83;0.82;;;14.70;99.90;;;;;;5054560;28;20534;-73
2023/10/22 10:14:46;;;;;;;4.07;0.73;;;14.70;99.90;;;;;;5054820;28;20048;-74
2023/10/22 10:17:14;;;;;;;6.07;0.68;;;14.80;99.90;;;;;;5053497;28;20032;-74
2023/10/22 10:19:39;;;;;;;4.38;0.40;;;14.80;99.90;;;;;;5054914;28;20136;-74
2023/10/22 10:22:06;;;;;;;5.75;0.85;;;14.90;99.90;;;;;;5054363;28;20052;-74
2023/10/22 10:24:32;;;;;;;4.28;0.52;;;15.00;99.90;;;;;;5053118;28;20055;-73
2023/10/22 10:26:58;;;;;;;4.03;0.63;;;15.00;99.90;;;;;;5054536;28;20041;-71
2023/10/22 10:29:29;;;;;;;3.00;0.50;;;15.10;99.90;;;;;;5053765;28;20036;-72
2023/10/22 10:32:15;;;;;;;3.42;0.65;;;15.10;99.90;;;;;;5054838;28;20035;-73
2023/10/22 10:34:49;;;;;;;5.13;0.50;;;15.10;99.90;;;;;;5054443;28;20033;-73
2023/10/22 10:37:16;;;;;;;3.03;0.55;;;15.20;99.90;;;;;;5054118;28;20029;-73
2023/10/22 10:39:47;;;;;;;3.83;0.60;;;15.20;99.90;;;;;;5052665;28;20032;-73
2023/10/22 10:42:14;;;;;;;3.20;1.00;;;15.20;99.90;;;;;;5053767;28;20033;-73
2023/10/22 10:44:58;;;;;;;6.00;0.50;;;15.20;99.90;;;;;;5036231;28;20128;-73
2023/10/22 10:47:33;;;;;;;3.20;0.55;;;15.20;99.90;;;;;;5054196;28;20361;-73
2023/10/22 10:50:07;;;;;;;3.83;0.45;;;15.20;99.90;;;;;;5053722;28;20037;-73
2023/10/22 10:52:45;;;;;;;3.50;0.40;;;15.30;99.90;;;;;;5053827;28;20511;-73
2023/10/22 10:55:29;;;;;;;3.03;0.77;;;15.30;99.90;;;;;;5053849;28;20032;-73
2023/10/22 10:57:55;;;;;;;3.50;0.45;;;15.40;99.90;;;;;;5054197;28;20028;-72
2023/10/22 11:00:32;;;;;;;4.70;0.55;;;15.40;99.90;;;;;;5053676;28;20037;-73
2023/10/22 11:03:01;;;;;;;5.20;0.45;;;15.40;99.90;;;;;;5054325;28;20021;-73
2023/10/22 11:05:32;;;;;;;2.13;0.38;;;15.50;99.90;;;;;;5053602;28;20070;-73
2023/10/22 11:07:59;;;;;;;2.30;0.32;;;15.50;99.90;;;;;;5053821;28;20032;-73
2023/10/22 11:10:31;;;;;;;2.67;0.40;;;15.50;99.90;;;;;;5052356;28;20424;-73
2023/10/22 11:13:04;;;;;;;5.30;0.50;;;15.50;99.90;;;;;;5053702;28;20106;-73
2023/10/22 11:15:35;;;;;;;1.90;0.35;;;15.60;99.90;;;;;;5052895;28;20354;-73
2023/10/22 11:18:05;;;;;;;4.22;0.40;;;15.60;99.90;;;;;;5053303;28;20125;-73
2023/10/22 11:20:32;;;;;;;2.88;0.30;;;15.60;99.90;;;;;;5053539;28;20119;-73
2023/10/22 11:22:58;;;;;;;3.33;0.40;;;15.60;99.70;;;;;;5053495;28;20037;-73
2023/10/22 11:25:25;;;;;;;1.92;0.65;;;15.70;99.90;;;;;;5052208;28;20063;-73
2023/10/22 11:27:51;;;;;;;3.60;0.45;;;15.70;99.90;;;;;;5053397;28;20104;-73
2023/10/22 11:30:37;;;;;;;3.70;0.25;;;15.80;99.90;;;;;;5052887;28;20029;-74
2023/10/22 11:33:07;;;;;;;1.40;0.30;;;15.90;99.90;;;;;;5053613;28;20032;-73
2023/10/22 11:35:33;;;;;;;1.30;0.20;;;15.90;99.90;;;;;;5053178;28;20036;-73
2023/10/22 11:37:59;;;;;;;4.57;0.63;;;15.90;99.90;;;;;;5052094;28;20116;-73
2023/10/22 11:40:36;;;;;;;4.22;0.47;;;15.90;99.60;;;;;;5053310;28;20033;-73
2023/10/22 11:43:26;;;;;;;2.40;0.55;;;15.80;98.90;;;;;;5052851;28;20029;-73
2023/10/22 11:45:56;;;;;;;2.05;0.30;;;15.80;99.00;;;;;;5053776;28;20365;-74
2023/10/22 11:48:26;;;;;;;1.88;0.40;;;15.80;99.10;;;;;;5051748;28;20029;-73
2023/10/22 11:50:57;;;;;;;2.83;0.40;;;15.70;99.20;;;;;;5052385;28;20065;-73
2023/10/22 11:53:26;;;;;;;2.90;0.55;;;15.80;99.60;;;;;;5053496;28;20025;-73
2023/10/22 11:55:52;;;;;;;2.13;0.55;;;15.80;99.70;;;;;;5053193;28;20437;-73
2023/10/22 11:58:24;;;;;;;1.95;0.47;;;15.90;99.70;;;;;;5051690;28;20029;-74
2023/10/22 12:00:51;;;;;;;4.22;0.70;;;16.00;99.80;;;;;;5054923;28;20095;-73
2023/10/22 12:03:18;;;;;;;3.20;0.73;;;16.00;99.60;;;;;;5057276;28;20108;-74
2023/10/22 12:05:44;;;;;;;1.98;0.65;;;16.00;99.70;;;;;;5056870;28;20029;-73
2023/10/22 12:08:10;;;;;;;3.75;0.55;;;16.00;99.70;;;;;;5056858;28;20082;-73
2023/10/22 12:10:36;;;;;;;2.20;0.90;;;16.00;99.20;;;;;;5057045;28;20063;-73
2023/10/22 12:13:02;;;;;;;2.20;0.50;;;16.00;98.80;;;;;;5056823;28;20472;-74
2023/10/22 12:15:28;;;;;;;2.75;0.80;;;15.90;98.90;;;;;;5056676;28;20125;-73
2023/10/22 12:17:55;;;;;;;3.38;0.77;;;15.90;98.50;;;;;;5056512;28;20071;-73
2023/10/22 12:20:21;;;;;;;2.15;0.50;;;15.90;98.40;;;;;;5056786;28;20420;-73
2023/10/22 12:22:47;;;;;;;4.45;0.65;;;15.90;98.00;;;;;;5057100;28;20065;-73
2023/10/22 12:25:13;;;;;;;3.30;0.50;;;15.90;98.20;;;;;;5056362;28;20080;-73
2023/10/22 12:27:39;;;;;;;3.33;0.60;;;15.90;98.40;;;;;;5056413;28;20037;-73
2023/10/22 12:30:07;;;;;;;2.17;0.50;;;15.90;98.70;;;;;;5056454;28;20056;-73
2023/10/22 12:32:33;;;;;;;3.58;0.80;;;16.00;98.90;;;;;;5056149;28;20451;-74
2023/10/22 12:34:59;;;;;;;3.05;0.75;;;16.00;98.50;;;;;;5056470;28;20056;-73
2023/10/22 12:37:25;;;;;;;3.92;0.50;;;16.00;98.50;;;;;;5056216;28;20461;-73
2023/10/22 12:39:51;;;;;;;3.28;0.60;;;16.00;98.30;;;;;;5055914;28;20037;-73
2023/10/22 12:42:17;;;;;;;2.25;0.68;;;16.00;98.40;;;;;;5055116;28;20043;-73
2023/10/22 12:44:43;;;;;;;2.58;0.43;;;16.00;98.10;;;;;;5055999;28;20111;-73
2023/10/22 12:47:12;;;;;;;2.97;0.80;;;15.90;98.10;;;;;;5056108;28;20033;-74